createdAt,value
2023-05-05T00:00:01.099Z,101128.53
2023-05-05T00:02:31.058Z,101109.25
2023-05-05T00:05:03.605Z,101093.84
2023-05-05T00:07:33.388Z,101095.41
2023-05-05T00:10:03.196Z,101101.66
2023-05-05T00:12:33.115Z,101028.81
2023-05-05T00:15:03.030Z,101101.63
2023-05-05T00:17:32.862Z,101114.06
2023-05-05T00:20:05.577Z,101084.69
2023-05-05T00:22:36.478Z,101092.47
2023-05-05T00:25:07.311Z,101107.06
2023-05-05T00:27:38.882Z,101070.91
2023-05-05T00:30:10.864Z,101100.19
2023-05-05T00:32:40.734Z,101064.75
2023-05-05T00:35:13.470Z,101105.34
2023-05-05T00:37:43.442Z,101034.78
2023-05-05T00:40:14.294Z,101080.53
2023-05-05T00:42:44.866Z,101062.28
2023-05-05T00:45:15.806Z,101064.97
2023-05-05T00:47:48.019Z,101065.59
2023-05-05T00:50:26.586Z,101014.84
2023-05-05T00:52:57.997Z,101058.03
2023-05-05T00:55:28.076Z,101065.84
2023-05-05T00:57:59.629Z,101082.13
2023-05-05T01:00:30.230Z,101072.22
2023-05-05T01:03:00.981Z,101056.69
2023-05-05T01:05:41.872Z,101068.84
2023-05-05T01:08:29.755Z,101070.41
2023-05-05T01:11:07.995Z,101066.28
2023-05-05T01:13:46.289Z,101049.16
2023-05-05T01:16:22.283Z,101053.50
2023-05-05T01:19:01.190Z,101057.44
2023-05-05T01:21:41.503Z,101062.69
2023-05-05T01:24:29.413Z,101037.03
2023-05-05T01:27:14.334Z,100992.69
2023-05-05T01:30:04.115Z,101051.31
2023-05-05T01:32:41.521Z,100966.63
2023-05-05T01:35:18.965Z,101041.75
2023-05-05T01:37:53.530Z,101037.38
2023-05-05T01:40:28.345Z,101053.75
2023-05-05T01:43:00.041Z,101048.44
2023-05-05T01:45:35.105Z,101003.44
2023-05-05T01:48:09.742Z,101037.69
2023-05-05T01:50:40.239Z,101048.81
2023-05-05T01:53:11.921Z,101043.56
2023-05-05T01:55:42.713Z,101034.84
2023-05-05T01:58:13.868Z,100988.25
2023-05-05T02:00:45.305Z,101040.03
2023-05-05T02:03:19.579Z,101037.59
2023-05-05T02:05:51.367Z,101027.75
2023-05-05T02:08:22.566Z,101021.94
2023-05-05T02:10:54.724Z,100993.09
2023-05-05T02:13:26.272Z,101037.69
2023-05-05T02:15:57.763Z,101035.88
2023-05-05T02:18:31.078Z,101016.22
2023-05-05T02:21:00.898Z,101018.63
2023-05-05T02:23:30.968Z,101039.41
2023-05-05T02:26:07.605Z,101020.53
2023-05-05T02:28:43.832Z,101036.88
2023-05-05T02:31:16.668Z,101017.72
2023-05-05T02:33:52.204Z,101012.28
2023-05-05T02:36:25.632Z,101018.41
2023-05-05T02:39:05.750Z,101025.09
2023-05-05T02:41:41.830Z,100999.56
2023-05-05T02:44:22.734Z,101003.03
2023-05-05T02:46:52.693Z,101026.13
2023-05-05T02:49:25.354Z,101013.13
2023-05-05T02:52:01.154Z,100987.25
2023-05-05T02:54:36.366Z,101006.53
2023-05-05T02:57:14.363Z,101022.09
2023-05-05T02:59:52.976Z,101010.41
2023-05-05T03:02:30.851Z,100989.47
2023-05-05T03:05:09.572Z,101005.88
2023-05-05T03:07:51.585Z,100992.13
2023-05-05T03:10:24.561Z,101000.75
2023-05-05T03:12:57.984Z,101000.78
2023-05-05T03:15:41.132Z,101005.31
2023-05-05T03:18:13.397Z,100991.16
2023-05-05T03:20:49.754Z,100997.34
2023-05-05T03:23:22.995Z,100993.06
2023-05-05T03:25:57.945Z,100966.50
2023-05-05T03:28:37.538Z,101000.97
2023-05-05T03:31:15.495Z,100987.19
2023-05-05T03:33:45.480Z,101011.69
2023-05-05T03:36:17.937Z,100993.06
2023-05-05T03:38:47.777Z,100993.22
2023-05-05T03:41:17.829Z,100967.44
2023-05-05T03:43:47.661Z,100977.19
2023-05-05T03:46:17.668Z,100976.44
2023-05-05T03:48:48.625Z,100987.56
2023-05-05T03:51:21.418Z,100979.84
2023-05-05T03:53:51.405Z,100974.53
2023-05-05T03:56:21.430Z,100982.44
2023-05-05T03:58:51.285Z,100958.22
2023-05-05T04:01:21.521Z,100970.31
2023-05-05T04:03:51.426Z,100959.72
2023-05-05T04:06:24.411Z,100938.28
2023-05-05T04:08:54.163Z,100963.75
2023-05-05T04:11:24.064Z,100982.78
2023-05-05T04:13:54.077Z,100986.47
2023-05-05T04:16:24.515Z,100958.00
2023-05-05T04:18:55.467Z,100974.38
2023-05-05T04:21:28.058Z,100989.84
2023-05-05T04:23:58.965Z,100986.00
2023-05-05T04:26:29.332Z,100998.38
2023-05-05T04:28:59.211Z,100971.28
2023-05-05T04:31:29.132Z,100980.88
2023-05-05T04:33:59.012Z,100975.50
2023-05-05T04:36:31.439Z,100991.13
2023-05-05T04:39:01.290Z,101003.31
2023-05-05T04:41:31.196Z,100995.03
2023-05-05T04:44:01.219Z,101005.31
2023-05-05T04:46:31.276Z,100997.06
2023-05-05T04:49:03.552Z,100997.03
2023-05-05T04:51:36.277Z,100977.22
2023-05-05T04:54:06.260Z,100985.69
2023-05-05T04:56:36.071Z,101007.09
2023-05-05T04:59:06.173Z,100994.19
2023-05-05T05:01:38.429Z,101015.56
2023-05-05T05:04:08.525Z,101020.75
2023-05-05T05:06:41.246Z,101011.56
2023-05-05T05:09:10.978Z,101006.38
2023-05-05T05:11:40.772Z,101019.13
2023-05-05T05:14:10.886Z,101014.72
2023-05-05T05:16:41.047Z,101008.69
2023-05-05T05:19:10.876Z,101026.75
2023-05-05T05:21:43.510Z,100976.78
2023-05-05T05:24:13.671Z,101014.88
2023-05-05T05:26:43.509Z,100987.59
2023-05-05T05:29:13.362Z,101013.88
2023-05-05T05:31:43.284Z,101009.69
2023-05-05T05:34:13.123Z,100984.81
2023-05-05T05:36:46.692Z,101008.13
2023-05-05T05:39:16.495Z,101010.38
2023-05-05T05:41:46.331Z,100975.28
2023-05-05T05:44:16.460Z,100991.75
2023-05-05T05:46:46.275Z,100996.44
2023-05-05T05:49:17.101Z,100999.75
2023-05-05T05:51:49.489Z,101000.53
2023-05-05T05:54:20.198Z,100997.84
2023-05-05T05:56:50.138Z,100998.50
2023-05-05T05:59:20.041Z,100976.25
2023-05-05T06:01:50.025Z,101013.41
2023-05-05T06:04:19.989Z,101000.69
2023-05-05T06:06:52.591Z,100998.81
2023-05-05T06:09:22.779Z,101016.47
2023-05-05T06:11:52.874Z,101028.69
2023-05-05T06:14:22.684Z,101023.91
2023-05-05T06:16:52.931Z,101015.41
2023-05-05T06:19:25.061Z,101025.63
2023-05-05T06:21:57.448Z,101020.44
2023-05-05T06:24:27.266Z,101022.16
2023-05-05T06:26:57.984Z,101034.34
2023-05-05T06:29:28.788Z,101045.31
2023-05-05T06:31:58.580Z,101028.94
2023-05-05T06:34:28.393Z,101042.63
2023-05-05T06:37:00.752Z,101034.31
2023-05-05T06:39:30.946Z,101020.75
2023-05-05T06:42:00.737Z,101021.56
2023-05-05T06:44:31.245Z,101032.63
2023-05-05T06:47:01.059Z,101019.19
2023-05-05T06:49:30.949Z,101018.06
2023-05-05T06:52:03.308Z,101016.31
2023-05-05T06:54:33.073Z,101016.88
2023-05-05T06:57:02.822Z,101007.47
2023-05-05T06:59:32.668Z,100999.47
2023-05-05T07:02:02.435Z,101013.53
2023-05-05T07:04:32.188Z,101026.47
2023-05-05T07:07:04.545Z,101027.38
2023-05-05T07:09:34.278Z,101004.38
2023-05-05T07:12:04.032Z,101033.28
2023-05-05T07:14:33.770Z,101040.28
2023-05-05T07:17:03.551Z,101047.31
2023-05-05T07:19:33.614Z,101061.16
2023-05-05T07:22:06.071Z,101057.19
2023-05-05T07:24:35.809Z,101065.69
2023-05-05T07:27:05.653Z,101078.53
2023-05-05T07:29:35.559Z,101063.13
2023-05-05T07:32:05.377Z,101111.41
2023-05-05T07:34:38.100Z,101118.94
2023-05-05T07:37:10.821Z,101159.28
2023-05-05T07:39:40.575Z,101151.50
2023-05-05T07:42:10.953Z,101150.50
2023-05-05T07:44:40.768Z,101129.00
2023-05-05T07:47:10.608Z,101133.16
2023-05-05T07:49:40.365Z,101143.34
2023-05-05T07:52:12.692Z,101125.13
2023-05-05T07:54:42.597Z,101135.16
2023-05-05T07:57:12.342Z,101125.38
2023-05-05T07:59:43.806Z,101135.34
2023-05-05T08:02:13.861Z,101098.25
2023-05-05T08:04:44.435Z,101126.38
2023-05-05T08:07:16.785Z,101112.56
2023-05-05T08:09:46.531Z,101128.16
2023-05-05T08:12:19.209Z,101133.31
2023-05-05T08:14:48.938Z,101132.66
2023-05-05T08:17:18.814Z,101126.91
2023-05-05T08:19:48.578Z,101114.88
2023-05-05T08:22:20.977Z,101075.53
2023-05-05T08:24:51.097Z,101041.22
2023-05-05T08:27:20.850Z,101103.31
2023-05-05T08:29:50.601Z,101127.50
2023-05-05T08:32:20.403Z,101122.63
2023-05-05T08:34:50.140Z,101096.00
2023-05-05T08:37:22.624Z,101126.13
2023-05-05T08:39:52.520Z,101133.13
2023-05-05T08:42:35.620Z,101112.50
2023-05-05T08:45:07.455Z,101115.19
2023-05-05T08:47:38.220Z,101112.78
2023-05-05T08:50:09.258Z,101095.72
2023-05-05T08:52:44.907Z,101115.53
2023-05-05T08:55:24.312Z,101101.81
2023-05-05T08:57:56.629Z,101128.41
2023-05-05T09:00:27.451Z,101149.16
2023-05-05T09:02:59.642Z,101157.19
2023-05-05T09:05:30.028Z,101149.53
2023-05-05T09:08:02.385Z,101134.75
2023-05-05T09:10:32.647Z,101146.81
2023-05-05T09:13:02.902Z,101133.75
2023-05-05T09:15:33.278Z,101112.81
2023-05-05T09:18:05.406Z,101110.91
2023-05-05T09:20:37.630Z,101078.31
2023-05-05T09:23:17.794Z,101110.34
2023-05-05T09:25:48.809Z,101122.41
2023-05-05T09:28:20.100Z,101128.56
2023-05-05T09:30:50.155Z,101132.22
2023-05-05T09:33:32.219Z,101135.75
2023-05-05T09:36:02.018Z,101122.03
2023-05-05T09:38:34.439Z,101123.91
2023-05-05T09:41:05.542Z,101118.72
2023-05-05T09:43:52.778Z,101092.06
2023-05-05T09:46:22.690Z,101122.28
2023-05-05T09:48:52.587Z,101118.84
2023-05-05T09:51:32.019Z,101124.91
2023-05-05T09:54:04.407Z,101101.78
2023-05-05T09:56:41.990Z,101131.22
2023-05-05T09:59:12.166Z,101148.41
2023-05-05T10:01:43.611Z,101132.19
2023-05-05T10:04:26.100Z,101156.34
2023-05-05T10:06:55.923Z,101122.88
2023-05-05T10:09:31.868Z,101145.34
2023-05-05T10:12:02.966Z,101138.53
2023-05-05T10:14:35.906Z,101136.84
2023-05-05T10:17:06.986Z,101111.91
2023-05-05T10:19:38.595Z,101133.38
2023-05-05T10:22:12.443Z,101130.81
2023-05-05T10:24:50.361Z,101149.75
2023-05-05T10:27:22.740Z,101145.44
2023-05-05T10:29:58.260Z,101124.78
2023-05-05T10:35:11.524Z,101131.59
2023-05-05T10:37:41.981Z,101114.47
2023-05-05T10:40:20.712Z,101128.19
2023-05-05T10:42:54.696Z,101116.94
2023-05-05T10:45:26.177Z,101128.09
2023-05-05T10:47:59.912Z,101119.44
2023-05-05T10:50:33.612Z,101117.72
2023-05-05T10:53:13.867Z,101114.25
2023-05-05T10:55:53.172Z,101098.75
2023-05-05T10:58:46.966Z,101079.00
2023-05-05T11:01:32.782Z,101105.56
2023-05-05T11:04:21.602Z,101087.50
2023-05-05T11:07:21.531Z,101095.19
2023-05-05T11:09:58.829Z,101076.22
2023-05-05T11:12:31.748Z,101068.47
2023-05-05T11:15:31.754Z,101064.91
2023-05-05T11:18:05.750Z,101080.22
2023-05-05T11:21:07.659Z,101093.88
2023-05-05T11:23:38.202Z,101069.72
2023-05-05T11:26:08.970Z,101085.06
2023-05-05T11:28:58.759Z,101083.09
2023-05-05T11:31:28.763Z,101071.75
2023-05-05T11:33:58.573Z,101072.56
2023-05-05T11:36:42.892Z,101081.84
2023-05-05T11:39:23.813Z,101072.31
2023-05-05T11:42:25.088Z,101073.09
2023-05-05T11:44:57.819Z,101057.53
2023-05-05T11:47:32.425Z,101062.50
2023-05-05T11:50:19.931Z,101074.34
2023-05-05T11:52:50.441Z,101071.75
2023-05-05T11:55:25.028Z,101063.03
2023-05-05T11:57:56.048Z,101040.06
2023-05-05T12:00:37.389Z,101045.25
2023-05-05T12:03:08.919Z,101072.72
2023-05-05T12:05:38.931Z,101058.97
2023-05-05T12:08:08.770Z,101068.38
2023-05-05T12:10:38.600Z,101059.66
2023-05-05T12:13:20.977Z,101061.06
2023-05-05T12:15:53.520Z,101017.88
2023-05-05T12:18:23.624Z,101045.34
2023-05-05T12:20:53.443Z,101062.53
2023-05-05T12:23:23.227Z,101065.63
2023-05-05T12:25:53.509Z,101068.00
2023-05-05T12:28:23.282Z,101062.47
2023-05-05T12:31:01.778Z,101053.78
2023-05-05T12:33:31.826Z,101049.47
2023-05-05T12:36:01.746Z,101041.22
2023-05-05T12:38:31.526Z,101048.47
2023-05-05T12:41:01.411Z,101026.88
2023-05-05T12:43:33.049Z,101016.25
2023-05-05T12:46:10.716Z,101030.31
2023-05-05T12:48:46.354Z,101023.50
2023-05-05T12:51:20.588Z,101030.72
2023-05-05T12:53:51.675Z,101026.44
2023-05-05T12:56:35.067Z,101030.13
2023-05-05T12:59:05.700Z,100992.44
2023-05-05T13:01:39.354Z,101010.41
2023-05-05T13:04:10.860Z,100995.00
2023-05-05T13:06:41.485Z,101009.50
2023-05-05T13:09:12.875Z,101002.66
2023-05-05T13:11:42.684Z,101003.91
2023-05-05T13:14:12.442Z,100992.81
2023-05-05T13:16:44.839Z,101001.16
2023-05-05T13:19:14.731Z,100992.34
2023-05-05T13:21:44.628Z,100952.81
2023-05-05T13:24:28.111Z,100992.47
2023-05-05T13:27:04.378Z,100972.94
2023-05-05T13:29:35.030Z,100970.03
2023-05-05T13:32:08.170Z,100978.38
2023-05-05T13:34:39.450Z,100954.59
2023-05-05T13:37:09.391Z,100976.84
2023-05-05T13:39:39.301Z,100964.69
2023-05-05T13:42:09.121Z,100963.03
2023-05-05T13:44:38.884Z,100947.00
2023-05-05T13:47:11.355Z,100934.63
2023-05-05T13:49:41.173Z,100953.38
2023-05-05T13:52:11.010Z,100938.28
2023-05-05T13:54:40.761Z,100939.88
2023-05-05T13:57:11.355Z,100930.41
2023-05-05T13:59:41.089Z,100928.78
2023-05-05T14:02:13.437Z,100916.41
2023-05-05T14:04:43.228Z,100912.06
2023-05-05T14:07:13.002Z,100910.38
2023-05-05T14:09:42.769Z,100908.63
2023-05-05T14:12:12.678Z,100906.94
2023-05-05T14:14:42.498Z,100885.25
2023-05-05T14:17:14.864Z,100863.94
2023-05-05T14:19:44.665Z,100890.66
2023-05-05T14:22:14.375Z,100878.66
2023-05-05T14:24:44.186Z,100880.28
2023-05-05T14:27:13.945Z,100898.63
2023-05-05T14:29:43.687Z,100897.72
2023-05-05T14:32:16.050Z,100884.72
2023-05-05T14:34:47.163Z,100875.56
2023-05-05T14:37:18.094Z,100875.81
2023-05-05T14:39:47.839Z,100894.63
2023-05-05T14:42:17.708Z,100899.03
2023-05-05T14:44:47.466Z,100906.78
2023-05-05T14:47:19.802Z,100915.44
2023-05-05T14:49:49.553Z,100898.75
2023-05-05T14:52:19.332Z,100916.72
2023-05-05T14:54:49.432Z,100874.84
2023-05-05T14:57:19.341Z,100909.88
2023-05-05T14:59:52.083Z,100912.84
2023-05-05T15:02:24.520Z,100899.63
2023-05-05T15:04:54.864Z,100909.06
2023-05-05T15:07:28.547Z,100910.06
2023-05-05T15:09:58.747Z,100903.53
2023-05-05T15:12:28.803Z,100900.34
2023-05-05T15:14:58.572Z,100891.59
2023-05-05T15:17:31.939Z,100898.50
2023-05-05T15:20:01.744Z,100907.28
2023-05-05T15:22:31.543Z,100909.69
2023-05-05T15:25:01.397Z,100907.31
2023-05-05T15:27:31.941Z,100943.00
2023-05-05T15:30:01.694Z,100962.19
2023-05-05T15:32:34.193Z,100973.31
2023-05-05T15:35:03.940Z,100990.19
2023-05-05T15:37:33.952Z,100995.69
2023-05-05T15:40:05.500Z,100995.03
2023-05-05T15:42:35.925Z,101005.38
2023-05-05T15:45:08.226Z,100980.41
2023-05-05T15:47:40.698Z,101007.75
2023-05-05T15:50:11.381Z,101029.00
2023-05-05T15:52:41.148Z,101040.97
2023-05-05T15:55:12.767Z,101069.09
2023-05-05T15:57:42.527Z,101087.13
2023-05-05T16:00:13.893Z,101082.66
2023-05-05T16:02:47.186Z,101103.22
2023-05-05T16:05:17.521Z,101099.78
2023-05-05T16:07:47.971Z,101116.03
2023-05-05T16:10:19.626Z,101105.66
2023-05-05T16:12:50.330Z,101109.25
2023-05-05T16:15:20.968Z,101105.13
2023-05-05T16:17:54.169Z,101083.84
2023-05-05T16:20:24.789Z,101090.06
2023-05-05T16:22:55.909Z,101103.94
2023-05-05T16:25:26.432Z,101103.97
2023-05-05T16:27:57.783Z,101091.97
2023-05-05T16:30:28.337Z,101093.72
2023-05-05T16:33:01.417Z,101098.00
2023-05-05T16:35:31.871Z,101092.06
2023-05-05T16:38:02.243Z,101096.34
2023-05-05T16:40:32.935Z,101083.47
2023-05-05T16:43:03.352Z,101093.78
2023-05-05T16:45:33.337Z,101085.16
2023-05-05T16:48:08.289Z,101074.88
2023-05-05T16:50:38.886Z,101092.94
2023-05-05T16:53:09.126Z,101076.63
2023-05-05T16:55:39.119Z,101070.59
2023-05-05T16:58:08.909Z,101086.06
2023-05-05T17:00:38.710Z,101082.63
2023-05-05T17:03:11.069Z,101081.81
2023-05-05T17:05:40.909Z,101094.72
2023-05-05T17:08:11.438Z,101096.44
2023-05-05T17:10:41.221Z,101093.00
2023-05-05T17:13:11.756Z,101089.56
2023-05-05T17:15:41.889Z,101099.00
2023-05-05T17:18:14.554Z,101093.84
2023-05-05T17:20:44.692Z,101051.72
2023-05-05T17:23:14.463Z,101083.50
2023-05-05T17:25:44.189Z,101040.53
2023-05-05T17:28:14.991Z,101059.50
2023-05-05T17:30:45.015Z,101029.38
2023-05-05T17:33:21.449Z,101046.59
2023-05-05T17:35:51.457Z,101024.22
2023-05-05T17:38:21.228Z,101048.31
2023-05-05T17:40:51.122Z,101031.97
2023-05-05T17:43:20.853Z,101054.34
2023-05-05T17:45:50.609Z,101054.34
2023-05-05T17:48:22.982Z,101062.03
2023-05-05T17:50:52.791Z,101047.44
2023-05-05T17:53:23.220Z,101060.31
2023-05-05T17:55:52.981Z,101060.28
2023-05-05T17:58:22.821Z,101045.69
2023-05-05T18:00:52.717Z,101043.97
2023-05-05T18:03:25.262Z,101063.75
2023-05-05T18:05:55.113Z,101062.00
2023-05-05T18:08:25.198Z,101054.25
2023-05-05T18:10:56.166Z,101068.03
2023-05-05T18:13:25.984Z,101055.97
2023-05-05T18:15:55.862Z,101055.09
2023-05-05T18:18:28.362Z,101052.53
2023-05-05T18:20:58.173Z,101045.63
2023-05-05T18:23:28.045Z,100998.34
2023-05-05T18:25:57.786Z,101049.06
2023-05-05T18:28:27.545Z,101057.63
2023-05-05T18:30:57.297Z,101057.59
2023-05-05T18:33:29.632Z,101067.94
2023-05-05T18:35:59.448Z,101055.88
2023-05-05T18:38:29.197Z,101063.56
2023-05-05T18:40:58.972Z,101061.84
2023-05-05T18:43:28.781Z,101025.75
2023-05-05T18:45:58.594Z,101053.22
2023-05-05T18:48:31.156Z,101042.88
2023-05-05T18:51:03.941Z,101057.47
2023-05-05T18:53:34.215Z,101059.91
2023-05-05T18:56:04.277Z,101060.72
2023-05-05T18:58:34.302Z,101058.09
2023-05-05T19:01:04.244Z,101060.59
2023-05-05T19:03:36.883Z,101060.56
2023-05-05T19:06:08.668Z,101064.84
2023-05-05T19:08:38.399Z,101047.63
2023-05-05T19:11:08.166Z,101046.72
2023-05-05T19:16:08.804Z,101064.78
2023-05-05T19:18:41.291Z,101069.03
2023-05-05T19:21:11.011Z,101072.44
2023-05-05T19:23:41.225Z,101079.38
2023-05-05T19:26:11.733Z,101082.75
2023-05-05T19:28:41.564Z,101061.19
2023-05-05T19:31:11.398Z,101062.00
2023-05-05T19:33:45.792Z,101044.00
2023-05-05T19:36:15.676Z,101070.72
2023-05-05T19:38:46.767Z,101069.91
2023-05-05T19:41:17.953Z,101081.16
2023-05-05T19:43:50.020Z,101073.53
2023-05-05T19:46:22.743Z,101082.97
2023-05-05T19:48:55.125Z,101080.38
2023-05-05T19:51:25.117Z,101088.13
2023-05-05T19:53:54.924Z,101069.28
2023-05-05T19:56:24.711Z,101073.63
2023-05-05T19:59:01.661Z,100994.56
2023-05-05T20:01:33.090Z,101040.19
2023-05-05T20:04:06.189Z,101075.47
2023-05-05T20:06:36.452Z,101071.19
2023-05-05T20:09:06.454Z,101060.88
2023-05-05T20:11:36.200Z,101072.06
2023-05-05T20:14:05.996Z,101069.50
2023-05-05T20:16:35.938Z,101072.91
2023-05-05T20:19:08.351Z,101038.53
2023-05-05T20:21:38.158Z,101040.19
2023-05-05T20:24:09.597Z,101039.38
2023-05-05T20:26:39.502Z,101059.94
2023-05-05T20:29:09.278Z,101061.69
2023-05-05T20:31:39.926Z,101065.03
2023-05-05T20:34:12.287Z,101070.22
2023-05-05T20:36:42.098Z,101069.31
2023-05-05T20:39:18.158Z,101049.56
2023-05-05T20:41:48.339Z,101045.19
2023-05-05T20:44:18.088Z,101053.78
2023-05-05T20:46:47.948Z,101051.22
2023-05-05T20:49:20.352Z,101066.63
2023-05-05T20:51:50.179Z,101041.69
2023-05-05T20:54:19.972Z,101057.06
2023-05-05T20:56:49.715Z,101065.63
2023-05-05T20:59:19.468Z,101066.47
2023-05-05T21:01:49.290Z,101058.75
2023-05-05T21:04:21.790Z,101063.06
2023-05-05T21:06:51.556Z,101057.91
2023-05-05T21:09:21.592Z,101053.63
2023-05-05T21:11:51.477Z,101040.69
2023-05-05T21:14:21.315Z,101047.53
2023-05-05T21:16:51.148Z,101054.34
2023-05-05T21:19:24.079Z,101044.91
2023-05-05T21:21:53.975Z,101059.41
2023-05-05T21:24:23.819Z,101021.44
2023-05-05T21:26:53.632Z,101060.97
2023-05-05T21:29:23.395Z,101058.31
2023-05-05T21:31:53.161Z,101047.91
2023-05-05T21:34:25.590Z,101058.19
2023-05-05T21:36:55.380Z,101053.03
2023-05-05T21:39:25.406Z,101038.34
2023-05-05T21:41:55.995Z,101039.97
2023-05-05T21:44:25.933Z,101071.88
2023-05-05T21:46:55.842Z,101067.63
2023-05-05T21:49:28.170Z,101045.25
2023-05-05T21:51:57.963Z,101068.53
2023-05-05T21:54:27.736Z,101075.44
2023-05-05T21:56:57.538Z,101085.72
2023-05-05T21:59:27.295Z,101072.06
2023-05-05T22:01:57.296Z,101076.38
2023-05-05T22:04:29.686Z,101076.41
2023-05-05T22:06:59.523Z,101066.97
2023-05-05T22:09:29.309Z,101068.66
2023-05-05T22:12:00.565Z,101076.47
2023-05-05T22:14:30.307Z,101068.66
2023-05-05T22:17:00.073Z,101076.44
2023-05-05T22:19:32.439Z,101069.59
2023-05-05T22:22:02.897Z,101074.75
2023-05-05T22:24:33.199Z,101066.19
2023-05-05T22:27:03.113Z,101070.44
2023-05-05T22:29:32.878Z,101070.41
2023-05-05T22:32:02.666Z,101072.19
2023-05-05T22:34:37.208Z,101048.97
2023-05-05T22:37:07.074Z,101070.47
2023-05-05T22:39:36.874Z,101055.88
2023-05-05T22:42:06.920Z,101070.41
2023-05-05T22:44:36.707Z,101063.53
2023-05-05T22:47:07.132Z,101083.31
2023-05-05T22:49:39.550Z,101079.97
2023-05-05T22:52:09.349Z,101087.63
2023-05-05T22:54:39.144Z,101078.16
2023-05-05T22:57:08.912Z,101087.56
2023-05-05T22:59:38.721Z,101091.00
2023-05-05T23:02:08.490Z,101083.28
2023-05-05T23:04:41.054Z,101091.03
2023-05-05T23:07:10.980Z,101086.69
2023-05-05T23:09:41.092Z,101073.78
2023-05-05T23:12:10.942Z,101078.16
2023-05-05T23:14:41.187Z,101067.78
2023-05-05T23:17:10.941Z,101034.19
2023-05-05T23:19:43.330Z,101085.84
2023-05-05T23:22:13.106Z,101062.53
2023-05-05T23:24:42.906Z,101070.31
2023-05-05T23:27:12.684Z,101070.28
2023-05-05T23:29:42.451Z,101089.09
2023-05-05T23:32:12.215Z,101083.88
2023-05-05T23:34:44.550Z,101096.78
2023-05-05T23:37:15.942Z,101095.03
2023-05-05T23:39:45.720Z,101041.69
2023-05-05T23:42:15.460Z,101065.81
2023-05-05T23:44:45.189Z,101102.81
2023-05-05T23:47:14.931Z,101097.75
2023-05-05T23:49:47.341Z,101077.09
2023-05-05T23:52:17.063Z,101090.91
2023-05-05T23:54:47.733Z,101091.78
2023-05-05T23:57:17.641Z,101100.41
2023-05-05T23:59:47.383Z,101079.69
